Ana Sayfa
METAR-TAF:

METAR-TAF

Havaalanları :

Mardin Havalimanı

Mardin, Türkiye

Enlem: 37-13-58N, Boylam: 40-38-26E, yükseklik: 527 m

Güncel hava durumu gözlemi

Rapor saat 15:50 UTC de 8 saat ve 43 dakika önce yapıldı.
Sakin rüzgar
Sıcaklık 8°C
Nem 76%
Basınç 1020 hPa
Görüş mesafesi 10 km veya daha fazla
4000 ft yükseklikte parçalı bulutlu
10000 ft yükseklikte parçalı çok bulutlu

METAR: LTCR 231550Z 00000KT 9999 SCT040 BKN100 08/04 Q1020

Saat: 03:33 (00:33 UTC)

Tahmin

Rapor saat 13:40 UTC de 10 saat ve 53 dakika önce yapıldı.
Ayın 23'si saat 15 UTC'den ayın 23'si saat 24 UTC'ye kadar geçerli Tahmin
Rüzgar kuzeydoğudan 12 kt
Görüş mesafesi 10 km veya daha fazla
4000 ft yükseklikte parçalı bulutlu
10000 ft yükseklikte parçalı çok bulutlu

TAF: LTCR 231340Z 2315/2324 05012KT 9999 SCT040 BKN100

4.000'den fazla havaalanı için hava durumu gözlemleri ve tahminleri (METAR ve TAF raporları).

Kullanılabilir istasyonlar harita üzerinde sarı ve kırmızı noktalarla gösterilir.

İstasyonun adını görmek için fareyi noktanın üzerinde gezdirin.

Sonrasında hava gözlem ve tahminlerini görmek için tıklayın.

Haritayı değiştirmek için: yaklaştırmak için siyah artı işaretli yeşil düğmeye ve uzaklaştırmak için de eksi işaretli düğmeye hızla tıklayın; bitişik haritalar için yeşil okları kullanın.


METAR-TAF: